Coldwater, Michigan
Current Conditions -  °F | °C
As of 5:54 PM on Tuesday 25 Nov 2014 (Local Time) from KOEB Reporting Station
Overcast Overcast  
Wind Chill: 22°   Ceiling: 1900
Heat Index: 29°   Visibility: 10mi
Dew Point: 23°   Wind: 6mph
Humidity: 81%   Direction: 250°WSW
Pressure: 30.14"   Gusts: NA
Location:  41.94°N, 85°W
Report Text: KOEB 252254Z AUTO 25005KT 10SM OVC019 M02/M05 A3014 RMK AO2 T10191048
Loading
Personal Weather Stations






























Interactive Weather Map New forecast layout! Learn more

10-Day Weather Forecast

Advertisements
Track Severe Weather on mobile